AAL9120 KAUS-KIAH
Flight info
| Callsign | AAL9120 |
|---|---|
| Flight time | N/A |
| Altitude | 21000 |
| Route | CWK8 ILEXY DRLLR5 |
| Aircraft | B38M/M-SDE1FGHILORVWXY/HB1 |
Departure
| Time | N/A |
|---|---|
| Airport | Austin Bergstrom International Airport (KAUS) |
Arrival
| Time | 2025-09-09 22:55 |
|---|---|
| Airport | George Bush Intercontinental Airport (KIAH) |
| Time | Latitude | Longitude | Altitude | Speed | Heading |
|---|---|---|---|---|---|
| 2025-09-09 22:38 | 30.29175 | -95.67532 | 14085 ft | 374 kts | 139° |
| 2025-09-09 22:39 | 30.25198 | -95.63691 | 13192 ft | 370 kts | 139° |
| 2025-09-09 22:39 | 30.21258 | -95.59896 | 12196 ft | 369 kts | 139° |
| 2025-09-09 22:40 | 30.17325 | -95.56118 | 11221 ft | 367 kts | 139° |
| 2025-09-09 22:40 | 30.15366 | -95.54237 | 10720 ft | 365 kts | 139° |
| 2025-09-09 22:41 | 30.09564 | -95.48670 | 9224 ft | 362 kts | 139° |
| 2025-09-09 22:41 | 30.05818 | -95.44932 | 8135 ft | 343 kts | 138° |
| 2025-09-09 22:42 | 30.02338 | -95.41464 | 7185 ft | 319 kts | 138° |
| 2025-09-09 22:42 | 29.99086 | -95.38228 | 6259 ft | 299 kts | 138° |
| 2025-09-09 22:43 | 29.96147 | -95.35300 | 6042 ft | 268 kts | 138° |
| 2025-09-09 22:43 | 29.93329 | -95.32497 | 6008 ft | 267 kts | 138° |
| 2025-09-09 22:44 | 29.90613 | -95.29790 | 6008 ft | 267 kts | 137° |
| 2025-09-09 22:44 | 29.89521 | -95.28103 | 5968 ft | 263 kts | 110° |
| 2025-09-09 22:45 | 29.89190 | -95.21890 | 5998 ft | 247 kts | 90° |
| 2025-09-09 22:45 | 29.89082 | -95.18157 | 5907 ft | 232 kts | 98° |
| 2025-09-09 22:46 | 29.88587 | -95.14695 | 5599 ft | 230 kts | 98° |
| 2025-09-09 22:46 | 29.88089 | -95.11054 | 5234 ft | 230 kts | 98° |
| 2025-09-09 22:47 | 29.87644 | -95.07725 | 4917 ft | 229 kts | 98° |
| 2025-09-09 22:47 | 29.87482 | -95.06534 | 4814 ft | 228 kts | 98° |
| 2025-09-09 22:47 | 29.87171 | -95.02919 | 4435 ft | 225 kts | 76° |
| 2025-09-09 22:48 | 29.89371 | -95.00752 | 4075 ft | 224 kts | 9° |
| 2025-09-09 22:49 | 29.93017 | -95.03304 | 3537 ft | 228 kts | 285° |
| 2025-09-09 22:49 | 29.94300 | -95.06620 | 3198 ft | 228 kts | 303° |
| 2025-09-09 22:50 | 29.95921 | -95.09770 | 2854 ft | 228 kts | 300° |
| 2025-09-09 22:50 | 29.96695 | -95.11361 | 2668 ft | 227 kts | 300° |
| 2025-09-09 22:50 | 29.97772 | -95.14307 | 2378 ft | 200 kts | 278° |
| 2025-09-09 22:51 | 29.97761 | -95.19014 | 1873 ft | 195 kts | 271° |
| 2025-09-09 22:52 | 29.97765 | -95.22112 | 1484 ft | 191 kts | 270° |
| 2025-09-09 22:52 | 29.97761 | -95.26067 | 833 ft | 153 kts | 271° |
| 2025-09-09 22:54 | 29.97760 | -95.31779 | 110 ft | 71 kts | 271° |
| 2025-09-09 22:54 | 29.97842 | -95.32297 | 108 ft | 22 kts | 299° |
| 2025-09-09 22:55 | 29.97869 | -95.32649 | 108 ft | 25 kts | 270° |
| 2025-09-09 22:55 | 29.97883 | -95.33004 | 110 ft | 14 kts | 306° |
| 2025-09-09 22:55 | 29.97979 | -95.33026 | 110 ft | 16 kts | 1° |